createdAt,value
2018-04-15T00:02:26.156Z,8.53
2018-04-15T00:04:53.724Z,8.27
2018-04-15T00:07:21.694Z,8.97
2018-04-15T00:09:49.674Z,9.00
2018-04-15T00:12:17.216Z,9.23
2018-04-15T00:14:45.188Z,9.13
2018-04-15T00:17:12.755Z,8.83
2018-04-15T00:19:40.723Z,8.60
2018-04-15T00:22:11.875Z,8.80
2018-04-15T00:24:40.038Z,7.67
2018-04-15T00:27:08.138Z,8.60
2018-04-15T00:29:35.534Z,9.43
2018-04-15T00:32:03.229Z,8.87
2018-04-15T00:34:32.835Z,8.80
2018-04-15T00:37:01.017Z,8.87
2018-04-15T00:39:28.988Z,7.93
2018-04-15T00:41:56.950Z,9.40
2018-04-15T00:44:24.508Z,8.83
2018-04-15T00:46:52.490Z,10.07
2018-04-15T00:49:20.038Z,8.57
2018-04-15T00:51:48.014Z,9.07
2018-04-15T00:54:18.032Z,8.87
2018-04-15T00:56:46.710Z,9.47
2018-04-15T00:59:14.683Z,8.50
2018-04-15T01:01:42.450Z,9.63
2018-04-15T01:04:10.426Z,9.70
2018-04-15T01:06:38.489Z,9.43
2018-04-15T01:09:06.692Z,9.93
2018-04-15T01:11:34.325Z,9.67
2018-04-15T01:14:02.603Z,9.53
2018-04-15T01:16:30.517Z,9.40
2018-04-15T01:18:58.252Z,9.47
2018-04-15T01:21:25.898Z,10.53
2018-04-15T01:23:53.875Z,9.00
2018-04-15T01:26:21.838Z,15.80
2018-04-15T01:28:49.811Z,12.93
2018-04-15T01:31:17.877Z,9.30
2018-04-15T01:33:48.203Z,9.40
2018-04-15T01:36:16.387Z,9.73
2018-04-15T01:38:44.291Z,10.00
2018-04-15T01:41:12.116Z,9.67
2018-04-15T01:43:40.292Z,9.17
2018-04-15T01:46:15.423Z,9.40
2018-04-15T01:48:43.394Z,8.93
2018-04-15T01:51:11.057Z,8.50
2018-04-15T01:53:39.039Z,9.00
2018-04-15T01:56:06.485Z,9.37
2018-04-15T01:58:34.458Z,7.97
2018-04-15T02:01:02.743Z,8.20
2018-04-15T02:03:30.290Z,8.17
2018-04-15T02:05:58.267Z,8.30
2018-04-15T02:08:26.230Z,8.67
2018-04-15T02:10:54.097Z,8.33
2018-04-15T02:13:22.065Z,7.63
2018-04-15T02:15:49.628Z,6.53
2018-04-15T02:18:17.632Z,7.10
2018-04-15T02:20:45.159Z,7.20
2018-04-15T02:23:13.125Z,6.13
2018-04-15T02:25:40.695Z,7.87
2018-04-15T02:28:08.787Z,6.93
2018-04-15T02:30:36.319Z,7.53
2018-04-15T02:33:04.297Z,6.83
2018-04-15T02:35:32.154Z,7.20
2018-04-15T02:38:00.127Z,7.00
2018-04-15T02:40:28.097Z,6.93
2018-04-15T02:42:56.064Z,6.40
2018-04-15T02:45:24.882Z,6.43
2018-04-15T02:47:52.416Z,6.97
2018-04-15T02:50:19.893Z,6.57
2018-04-15T02:52:47.751Z,9.97
2018-04-15T02:55:15.298Z,10.83
2018-04-15T02:57:43.073Z,6.80
2018-04-15T03:00:11.341Z,6.07
2018-04-15T03:02:39.423Z,6.50
2018-04-15T03:05:06.981Z,15.23
2018-04-15T03:07:34.633Z,8.67
2018-04-15T03:10:02.811Z,7.57
2018-04-15T03:12:30.882Z,8.67
2018-04-15T03:14:59.058Z,8.57
2018-04-15T03:17:26.928Z,8.00
2018-04-15T03:19:54.912Z,16.77
2018-04-15T03:22:22.461Z,8.77
2018-04-15T03:24:55.485Z,7.77
2018-04-15T03:27:22.921Z,8.37
2018-04-15T03:29:50.561Z,8.70
2018-04-15T03:32:18.634Z,11.43
2018-04-15T03:34:46.611Z,10.20
2018-04-15T03:37:14.943Z,16.40
2018-04-15T03:39:42.549Z,16.87
2018-04-15T03:42:10.101Z,17.53
2018-04-15T03:44:38.596Z,14.03
2018-04-15T03:47:06.158Z,16.97
2018-04-15T03:49:33.806Z,14.80
2018-04-15T03:52:01.731Z,16.03
2018-04-15T03:54:29.335Z,12.07
2018-04-15T03:56:57.725Z,13.97
2018-04-15T03:59:25.721Z,13.03
2018-04-15T04:01:53.755Z,10.10
2018-04-15T04:04:21.729Z,9.50
2018-04-15T04:06:49.705Z,9.23
2018-04-15T04:09:17.747Z,17.87
2018-04-15T04:11:45.329Z,18.50
2018-04-15T04:14:12.887Z,10.63
2018-04-15T04:16:41.064Z,17.73
2018-04-15T04:19:20.503Z,10.40
2018-04-15T04:22:05.888Z,19.13
2018-04-15T04:24:45.733Z,14.20
2018-04-15T04:27:13.207Z,11.77
2018-04-15T04:29:40.856Z,18.13
2018-04-15T04:32:08.587Z,10.07
2018-04-15T04:34:36.899Z,17.30
2018-04-15T04:37:04.860Z,9.73
2018-04-15T04:39:32.830Z,10.70
2018-04-15T04:42:00.798Z,20.37
2018-04-15T04:44:28.767Z,21.83
2018-04-15T04:46:56.882Z,17.63
2018-04-15T04:49:24.407Z,20.40
2018-04-15T04:51:52.675Z,15.93
2018-04-15T04:54:20.750Z,10.50
2018-04-15T04:56:56.320Z,10.00
2018-04-15T04:59:23.861Z,10.03
2018-04-15T05:01:51.519Z,8.50
2018-04-15T05:04:19.491Z,9.90
2018-04-15T05:06:47.355Z,8.93
2018-04-15T05:09:15.427Z,9.10
2018-04-15T05:11:43.397Z,10.20
2018-04-15T05:14:19.563Z,12.87
2018-04-15T05:16:47.638Z,10.23
2018-04-15T05:19:15.534Z,9.93
2018-04-15T05:21:43.168Z,9.67
2018-04-15T05:24:10.687Z,12.77
2018-04-15T05:26:38.383Z,9.63
2018-04-15T05:29:06.355Z,19.20
2018-04-15T05:31:34.024Z,13.63
2018-04-15T05:34:01.992Z,13.63
2018-04-15T05:36:29.954Z,9.57
2018-04-15T05:38:57.814Z,10.87
2018-04-15T05:41:25.405Z,9.90
2018-04-15T05:43:53.556Z,10.00
2018-04-15T05:46:21.275Z,12.40
2018-04-15T05:48:48.917Z,16.53
2018-04-15T05:51:16.450Z,11.13
2018-04-15T05:53:44.006Z,10.40
2018-04-15T05:56:11.558Z,13.00
2018-04-15T05:58:39.492Z,14.67
2018-04-15T06:01:07.330Z,18.23
2018-04-15T06:03:34.856Z,12.43
2018-04-15T06:06:02.813Z,8.40
2018-04-15T06:08:30.899Z,11.10
2018-04-15T06:10:58.468Z,8.43
2018-04-15T06:13:25.937Z,7.70
2018-04-15T06:15:53.690Z,7.80
2018-04-15T06:18:21.380Z,8.60
2018-04-15T06:20:48.860Z,8.20
2018-04-15T06:23:16.486Z,8.67
2018-04-15T06:25:44.034Z,17.50
2018-04-15T06:28:11.887Z,14.77
2018-04-15T06:30:40.809Z,13.13
2018-04-15T06:33:08.370Z,11.17
2018-04-15T06:35:36.489Z,15.23
2018-04-15T06:38:04.695Z,12.73
2018-04-15T06:40:32.136Z,9.63
2018-04-15T06:42:59.820Z,10.20
2018-04-15T06:45:27.884Z,15.03
2018-04-15T06:47:56.581Z,10.60
2018-04-15T06:50:28.135Z,11.43
2018-04-15T06:52:55.577Z,12.13
2018-04-15T06:55:23.689Z,10.50
2018-04-15T06:57:51.630Z,12.57
2018-04-15T07:00:19.795Z,14.87
2018-04-15T07:02:50.224Z,15.33
2018-04-15T07:05:18.191Z,16.23
2018-04-15T07:07:46.271Z,17.40
2018-04-15T07:10:14.338Z,17.00
2018-04-15T07:12:42.521Z,15.03
2018-04-15T07:15:13.654Z,16.63
2018-04-15T07:17:41.966Z,17.50
2018-04-15T07:20:09.595Z,18.43
2018-04-15T07:22:39.620Z,17.10
2018-04-15T07:25:07.792Z,16.47
2018-04-15T07:27:35.759Z,18.70
2018-04-15T07:30:09.462Z,21.30
2018-04-15T07:32:37.595Z,18.50
2018-04-15T07:35:05.402Z,16.40
2018-04-15T07:37:33.379Z,15.87
2018-04-15T07:40:01.443Z,16.87
2018-04-15T07:42:29.420Z,17.83
2018-04-15T07:44:57.085Z,18.90
2018-04-15T07:47:29.141Z,19.83
2018-04-15T07:49:56.700Z,14.97
2018-04-15T07:52:24.882Z,22.20
2018-04-15T07:54:52.846Z,17.03
2018-04-15T07:57:20.333Z,19.63
2018-04-15T07:59:52.060Z,17.03
2018-04-15T08:02:19.653Z,19.53
2018-04-15T08:04:47.385Z,19.40
2018-04-15T08:07:18.946Z,18.20
2018-04-15T08:09:46.519Z,20.63
2018-04-15T08:12:16.116Z,19.43
2018-04-15T08:14:48.480Z,18.03
2018-04-15T08:17:16.042Z,19.73
2018-04-15T08:19:44.018Z,18.40
2018-04-15T08:22:12.901Z,20.23
2018-04-15T08:24:40.465Z,18.70
2018-04-15T08:27:13.347Z,19.30
2018-04-15T08:29:41.313Z,18.30
2018-04-15T08:32:09.286Z,17.87
2018-04-15T08:34:37.258Z,19.97
2018-04-15T08:37:05.225Z,21.07
2018-04-15T08:39:33.308Z,19.30
2018-04-15T08:42:01.293Z,18.97
2018-04-15T08:44:28.748Z,21.57
2018-04-15T08:46:56.288Z,20.27
2018-04-15T08:49:24.359Z,21.17
2018-04-15T08:51:58.877Z,18.60
2018-04-15T08:54:28.100Z,21.43
2018-04-15T08:56:59.991Z,22.80
2018-04-15T08:59:27.602Z,21.90
2018-04-15T09:01:55.580Z,23.20
2018-04-15T09:04:24.060Z,20.07
2018-04-15T09:06:52.066Z,20.87
2018-04-15T09:09:19.504Z,23.87
2018-04-15T09:11:47.142Z,24.50
2018-04-15T09:14:15.215Z,23.93
2018-04-15T09:16:43.295Z,22.20
2018-04-15T09:19:11.190Z,23.57
2018-04-15T09:21:44.654Z,23.40
2018-04-15T09:24:16.318Z,20.93
2018-04-15T09:26:44.392Z,22.50
2018-04-15T09:29:11.916Z,21.33
2018-04-15T09:31:39.399Z,21.47
2018-04-15T09:34:07.472Z,22.43
2018-04-15T09:36:39.740Z,19.33
2018-04-15T10:10:49.879Z,21.53
2018-04-15T10:13:17.484Z,23.27
2018-04-15T10:15:46.525Z,24.87
2018-04-15T10:18:17.270Z,23.20
2018-04-15T10:20:49.130Z,20.37
2018-04-15T10:23:23.781Z,17.93
2018-04-15T10:25:55.131Z,19.50
2018-04-15T10:28:28.426Z,18.97
2018-04-15T10:30:57.366Z,15.00
2018-04-15T10:33:27.285Z,17.03
2018-04-15T10:35:57.359Z,18.20
2018-04-15T10:38:27.164Z,15.40
2018-04-15T10:40:57.537Z,16.00
2018-04-15T10:43:26.588Z,16.30
2018-04-15T10:45:58.614Z,17.60
2018-04-15T10:48:28.491Z,16.20
2018-04-15T10:50:58.259Z,15.20
2018-04-15T10:53:29.447Z,16.87
2018-04-15T10:56:01.559Z,16.00
2018-04-15T10:58:35.997Z,19.13
2018-04-15T11:01:06.016Z,20.83
2018-04-15T11:03:39.279Z,19.63
2018-04-15T11:06:13.784Z,18.87
2018-04-15T11:08:42.430Z,18.33
2018-04-15T11:11:10.110Z,16.60
2018-04-15T11:13:38.072Z,17.50
2018-04-15T11:16:07.994Z,14.87
2018-04-15T11:18:36.061Z,18.03
2018-04-15T11:21:03.922Z,16.47
2018-04-15T11:23:31.592Z,17.53
2018-04-15T11:25:59.295Z,19.10
2018-04-15T11:28:30.419Z,17.73
2018-04-15T11:30:57.954Z,16.57
2018-04-15T11:33:33.163Z,17.90
2018-04-15T11:36:19.698Z,21.30
2018-04-15T11:38:49.613Z,23.10
2018-04-15T11:41:24.068Z,22.00
2018-04-15T11:43:51.631Z,21.37
2018-04-15T11:46:19.483Z,21.30
2018-04-15T11:48:53.782Z,22.80
2018-04-15T11:51:21.857Z,20.87
2018-04-15T11:53:53.617Z,20.60
2018-04-15T11:56:22.523Z,21.27
2018-04-15T11:58:50.173Z,22.50
2018-04-15T12:01:17.831Z,22.47
2018-04-15T12:03:48.765Z,20.10
2018-04-15T12:06:16.772Z,21.83
2018-04-15T12:08:48.188Z,20.07
2018-04-15T12:11:16.267Z,18.93
2018-04-15T12:13:44.238Z,17.63
2018-04-15T12:16:12.226Z,16.27
2018-04-15T12:18:39.868Z,16.17
2018-04-15T12:21:07.536Z,17.90
2018-04-15T12:23:35.083Z,16.00
2018-04-15T12:26:03.054Z,12.67
2018-04-15T12:28:30.987Z,12.97
2018-04-15T12:30:58.594Z,13.43
2018-04-15T12:33:26.247Z,11.90
2018-04-15T12:35:54.275Z,14.30
2018-04-15T12:38:21.880Z,17.13
2018-04-15T12:40:57.244Z,11.00
2018-04-15T12:43:24.886Z,14.30
2018-04-15T12:45:53.908Z,14.57
2018-04-15T12:48:21.547Z,14.13
2018-04-15T12:50:49.509Z,12.37
2018-04-15T12:53:18.609Z,14.20
2018-04-15T12:55:46.206Z,13.47
2018-04-15T12:58:13.827Z,15.40
2018-04-15T13:00:42.031Z,11.00
2018-04-15T13:03:10.700Z,11.43
2018-04-15T13:05:38.453Z,10.57
2018-04-15T13:08:06.431Z,13.13
2018-04-15T13:10:34.392Z,11.93
2018-04-15T13:13:02.465Z,9.73
2018-04-15T13:15:30.759Z,8.53
2018-04-15T13:17:58.317Z,8.50
2018-04-15T13:20:25.883Z,10.03
2018-04-15T13:22:53.425Z,9.60
2018-04-15T13:25:21.502Z,8.07
2018-04-15T13:27:49.843Z,8.07
2018-04-15T13:30:17.953Z,7.70
2018-04-15T13:32:46.224Z,7.87
2018-04-15T13:35:14.089Z,6.93
2018-04-15T13:37:42.080Z,6.67
2018-04-15T13:40:13.261Z,6.43
2018-04-15T13:42:40.973Z,7.50
2018-04-15T13:45:10.166Z,7.13
2018-04-15T13:47:38.162Z,5.77
2018-04-15T13:50:05.909Z,6.33
2018-04-15T13:52:37.654Z,6.27
2018-04-15T13:55:10.747Z,6.40
2018-04-15T13:57:39.251Z,7.30
2018-04-15T14:00:06.892Z,5.20
2018-04-15T14:02:34.863Z,5.80
2018-04-15T14:05:03.412Z,4.80
2018-04-15T14:07:31.079Z,5.20
2018-04-15T14:09:59.077Z,3.83
2018-04-15T14:12:27.057Z,5.03
2018-04-15T14:14:55.237Z,4.77
2018-04-15T14:17:23.301Z,4.17
2018-04-15T14:19:52.800Z,4.83
2018-04-15T14:22:20.462Z,3.57
2018-04-15T14:24:48.460Z,3.93
2018-04-15T14:27:17.024Z,4.43
2018-04-15T14:29:45.095Z,3.97
2018-04-15T14:32:12.668Z,4.27
2018-04-15T14:34:40.618Z,4.23
2018-04-15T14:37:08.644Z,3.47
2018-04-15T14:39:36.249Z,2.97
2018-04-15T14:42:04.453Z,3.20
2018-04-15T14:44:31.983Z,3.67
2018-04-15T14:46:59.552Z,3.60
2018-04-15T14:49:27.207Z,3.80
2018-04-15T14:51:55.278Z,3.17
2018-04-15T14:54:25.901Z,3.07
2018-04-15T14:56:53.432Z,3.30
2018-04-15T14:59:21.739Z,3.30
2018-04-15T15:01:49.755Z,3.80
2018-04-15T15:04:24.864Z,4.33
2018-04-15T15:06:52.554Z,5.57
2018-04-15T15:09:20.392Z,4.47
2018-04-15T15:11:48.354Z,5.50
2018-04-15T15:14:16.016Z,4.33
2018-04-15T15:16:45.179Z,4.80
2018-04-15T15:19:12.691Z,4.03
2018-04-15T15:21:40.697Z,4.37
2018-04-15T15:24:10.463Z,5.33
2018-04-15T15:26:38.126Z,5.33
2018-04-15T15:29:05.983Z,4.43
2018-04-15T15:31:34.161Z,5.40
2018-04-15T15:34:02.229Z,5.37
2018-04-15T15:36:34.092Z,6.07
2018-04-15T15:39:02.060Z,4.87
2018-04-15T15:41:31.160Z,5.30
2018-04-15T15:43:58.615Z,5.27
2018-04-15T15:46:26.892Z,4.57
2018-04-15T15:48:54.914Z,4.70
2018-04-15T15:51:22.728Z,5.30
2018-04-15T15:53:51.006Z,5.47
2018-04-15T15:56:19.119Z,5.07
2018-04-15T15:58:47.764Z,4.73
2018-04-15T16:01:16.054Z,4.90
2018-04-15T16:03:47.493Z,4.23
2018-04-15T16:06:15.668Z,4.37
2018-04-15T16:08:43.225Z,4.27
2018-04-15T16:11:11.609Z,8.10
2018-04-15T16:13:47.896Z,4.90
2018-04-15T16:16:16.454Z,5.07
2018-04-15T16:18:45.045Z,6.70
2018-04-15T16:21:13.109Z,7.90
2018-04-15T16:23:43.846Z,6.10
2018-04-15T16:26:11.429Z,8.70
2018-04-15T16:28:39.175Z,7.80
2018-04-15T16:31:07.754Z,7.53
2018-04-15T16:33:35.826Z,7.20
2018-04-15T16:36:04.000Z,7.53
2018-04-15T16:38:32.081Z,6.33
2018-04-15T16:40:59.748Z,6.47
2018-04-15T16:43:27.434Z,6.30
2018-04-15T16:45:55.061Z,7.17
2018-04-15T16:48:23.056Z,6.20
2018-04-15T16:50:50.727Z,6.50
2018-04-15T16:53:18.262Z,5.77
2018-04-15T16:55:45.809Z,5.60
2018-04-15T16:58:15.839Z,7.67
2018-04-15T17:00:43.832Z,5.63
2018-04-15T17:03:11.358Z,6.50
2018-04-15T17:05:42.608Z,6.03
2018-04-15T17:08:10.575Z,5.60
2018-04-15T17:10:42.945Z,5.27
2018-04-15T17:13:12.144Z,7.27
2018-04-15T17:15:39.816Z,5.80
2018-04-15T17:18:09.824Z,5.27
2018-04-15T17:20:37.793Z,6.50
2018-04-15T17:23:05.874Z,6.40
2018-04-15T17:25:38.958Z,6.20
2018-04-15T17:28:07.658Z,7.53
2018-04-15T17:30:35.129Z,5.33
2018-04-15T17:33:05.117Z,6.70
2018-04-15T17:35:32.885Z,6.47
2018-04-15T17:38:11.912Z,5.77
2018-04-15T17:40:39.479Z,5.53
2018-04-15T17:43:08.159Z,4.93
2018-04-15T17:45:36.157Z,4.93
2018-04-15T17:48:03.704Z,5.50
2018-04-15T17:50:31.455Z,5.43
2018-04-15T17:53:03.341Z,5.50
2018-04-15T17:55:31.149Z,5.13
2018-04-15T17:57:58.672Z,4.73
2018-04-15T18:00:26.304Z,5.07
2018-04-15T18:02:54.575Z,5.53
2018-04-15T18:05:22.856Z,4.60
2018-04-15T18:07:51.134Z,5.60
2018-04-15T18:10:19.101Z,4.87
2018-04-15T18:12:47.977Z,4.50
2018-04-15T18:15:21.213Z,4.57
2018-04-15T18:17:48.846Z,5.50
2018-04-15T18:20:17.644Z,5.43
2018-04-15T18:22:45.563Z,5.43
2018-04-15T18:25:13.269Z,4.70
2018-04-15T18:27:41.543Z,5.00
2018-04-15T18:30:09.204Z,5.00
2018-04-15T18:32:37.379Z,5.70
2018-04-15T18:35:06.844Z,5.50
2018-04-15T18:37:34.547Z,6.50
2018-04-15T18:40:03.132Z,4.27
2018-04-15T18:42:35.853Z,4.80
2018-04-15T18:45:05.641Z,5.10
2018-04-15T18:47:40.075Z,5.23
2018-04-15T18:50:08.822Z,4.87
2018-04-15T18:52:36.910Z,4.63
2018-04-15T18:55:04.886Z,4.87
2018-04-15T18:57:43.738Z,5.37
2018-04-15T19:00:12.703Z,4.57
2018-04-15T19:02:40.707Z,4.40
2018-04-15T19:05:08.329Z,4.60
2018-04-15T19:07:36.839Z,4.87
2018-04-15T19:10:05.549Z,3.93
2018-04-15T19:12:33.263Z,4.00
2018-04-15T19:15:03.381Z,3.90
2018-04-15T19:17:36.932Z,4.10
2018-04-15T19:20:04.540Z,4.33
2018-04-15T19:22:36.612Z,4.43
2018-04-15T19:25:04.582Z,4.43
2018-04-15T19:27:32.447Z,4.37
2018-04-15T19:30:06.867Z,4.50
2018-04-15T19:32:42.825Z,4.07
2018-04-15T19:35:10.816Z,5.80
2018-04-15T19:37:38.666Z,4.17
2018-04-15T19:40:06.933Z,4.43
2018-04-15T19:42:34.948Z,5.67
2018-04-15T19:45:13.020Z,7.80
2018-04-15T19:47:42.622Z,5.10
2018-04-15T19:50:14.994Z,6.10
2018-04-15T19:52:42.560Z,4.40
2018-04-15T19:55:10.672Z,5.40
2018-04-15T19:57:40.465Z,4.53
2018-04-15T20:00:08.205Z,4.73
2018-04-15T20:02:36.178Z,4.13
2018-04-15T20:05:04.656Z,8.20
2018-04-15T20:07:33.340Z,5.60
2018-04-15T20:10:01.522Z,6.03
2018-04-15T20:12:30.097Z,5.53
2018-04-15T20:15:01.867Z,4.37
2018-04-15T20:17:29.426Z,4.37
2018-04-15T20:19:57.385Z,4.53
2018-04-15T20:22:25.367Z,4.73
2018-04-15T20:24:53.333Z,4.27
2018-04-15T20:27:21.706Z,4.67
2018-04-15T20:29:49.673Z,4.70
2018-04-15T20:32:19.384Z,4.53
2018-04-15T20:34:47.368Z,4.23
2018-04-15T20:37:22.698Z,4.50
2018-04-15T20:39:51.258Z,6.30
2018-04-15T20:42:18.850Z,4.47
2018-04-15T20:44:48.245Z,5.03
2018-04-15T20:47:16.940Z,5.87
2018-04-15T20:49:44.900Z,5.23
2018-04-15T20:52:15.257Z,6.23
2018-04-15T20:54:46.269Z,5.80
2018-04-15T20:57:18.384Z,6.03
2018-04-15T20:59:45.900Z,6.43
2018-04-15T21:02:13.664Z,4.83
2018-04-15T21:04:41.840Z,9.47
2018-04-15T21:07:10.036Z,5.20
2018-04-15T21:09:37.875Z,8.20
2018-04-15T21:12:05.840Z,6.63
2018-04-15T21:14:33.906Z,8.20
2018-04-15T21:17:01.544Z,8.47
2018-04-15T21:19:29.409Z,5.83
2018-04-15T21:21:56.949Z,5.33
2018-04-15T21:24:24.673Z,8.33
2018-04-15T21:26:52.862Z,6.23
2018-04-15T21:29:27.881Z,5.40
2018-04-15T21:31:55.545Z,5.43
2018-04-15T21:34:23.099Z,5.63
2018-04-15T21:36:51.180Z,5.90
2018-04-15T21:39:18.840Z,6.03
2018-04-15T21:41:46.700Z,5.57
2018-04-15T21:44:14.772Z,5.47
2018-04-15T21:46:43.234Z,7.33
2018-04-15T21:49:10.924Z,6.50
2018-04-15T21:51:38.994Z,6.13
2018-04-15T21:54:07.001Z,6.90
2018-04-15T21:56:34.932Z,8.50
2018-04-15T21:59:02.589Z,8.37
2018-04-15T22:01:30.566Z,7.57
2018-04-15T22:04:04.161Z,12.23
2018-04-15T22:06:32.075Z,8.43
2018-04-15T22:09:08.098Z,12.40
2018-04-15T22:11:47.670Z,9.07
2018-04-15T22:14:15.427Z,11.20
2018-04-15T22:16:43.205Z,9.83
2018-04-15T22:19:12.219Z,9.67
2018-04-15T22:21:41.861Z,10.43
2018-04-15T22:24:09.832Z,10.17
2018-04-15T22:26:37.913Z,15.90
2018-04-15T22:29:05.611Z,9.70
2018-04-15T22:31:33.638Z,11.30
2018-04-15T22:34:01.646Z,10.60
2018-04-15T22:36:29.627Z,12.80
2018-04-15T22:38:57.170Z,10.77
2018-04-15T22:41:24.903Z,12.70
2018-04-15T22:43:52.982Z,12.40
2018-04-15T22:46:20.637Z,14.97
2018-04-15T22:48:48.605Z,12.27
2018-04-15T22:51:16.678Z,9.67
2018-04-15T22:53:44.956Z,10.27
2018-04-15T22:56:12.514Z,10.93
2018-04-15T22:58:47.092Z,12.50
2018-04-15T23:01:15.723Z,8.83
2018-04-15T23:03:44.000Z,7.93
2018-04-15T23:06:11.973Z,9.23
2018-04-15T23:08:39.824Z,9.80
2018-04-15T23:11:07.400Z,12.50
2018-04-15T23:13:34.878Z,8.23
2018-04-15T23:16:02.776Z,8.17
2018-04-15T23:18:30.278Z,8.30
2018-04-15T23:20:58.298Z,12.90
2018-04-15T23:23:25.723Z,9.03
2018-04-15T23:25:53.821Z,8.27
2018-04-15T23:28:21.307Z,10.20
2018-04-15T23:30:48.835Z,7.63
2018-04-15T23:33:16.470Z,9.27
2018-04-15T23:35:44.542Z,10.70
2018-04-15T23:38:12.459Z,11.57
2018-04-15T23:40:40.122Z,10.93
2018-04-15T23:43:07.837Z,9.23
2018-04-15T23:45:35.763Z,10.83
2018-04-15T23:48:03.373Z,10.10
2018-04-15T23:50:30.949Z,12.50
2018-04-15T23:52:58.551Z,11.00
2018-04-15T23:55:26.366Z,9.73
2018-04-15T23:57:54.315Z,8.23
